Auburn, Massachusetts
Current Conditions -  °F | °C
As of 10:54 AM on Wednesday 28 Jan 2015 (Local Time) from KORH Reporting Station
Few Clouds Few Clouds  
Wind Chill:   Ceiling: Unl
Heat Index: 14°   Visibility: 10mi
Dew Point:   Wind: 10mph
Humidity: 62%   Direction: 330°NNW
Pressure: 29.89"   Gusts: NA
Location:  42.18°N, 71.85°W
Report Text: KORH 281554Z 33009KT 10SM FEW120 M10/M16 A2989 RMK AO2 SLP145 T11001161
Loading
Personal Weather Stations






























Interactive Weather Map New forecast layout! Learn more

10-Day Weather Forecast

Advertisements
Track Severe Weather on mobile